sensor_id;sensor_type;location;lat;lon;timestamp;P1;durP1;ratioP1;P2;durP2;ratioP2
70455;SDS011;57916;51.996;5.180;2023-05-16T00:00:37;15.38;;;2.42;;
70455;SDS011;57916;51.996;5.180;2023-05-16T00:03:04;12.52;;;2.53;;
70455;SDS011;57916;51.996;5.180;2023-05-16T00:05:31;15.20;;;2.10;;
70455;SDS011;57916;51.996;5.180;2023-05-16T00:07:58;15.85;;;2.15;;
70455;SDS011;57916;51.996;5.180;2023-05-16T00:10:25;14.45;;;2.13;;
70455;SDS011;57916;51.996;5.180;2023-05-16T00:12:53;18.98;;;2.10;;
70455;SDS011;57916;51.996;5.180;2023-05-16T00:15:20;13.35;;;1.77;;
70455;SDS011;57916;51.996;5.180;2023-05-16T00:17:48;16.63;;;2.47;;
70455;SDS011;57916;51.996;5.180;2023-05-16T00:20:15;13.60;;;2.30;;
70455;SDS011;57916;51.996;5.180;2023-05-16T00:22:48;14.55;;;2.55;;
70455;SDS011;57916;51.996;5.180;2023-05-16T00:25:16;18.30;;;2.00;;
70455;SDS011;57916;51.996;5.180;2023-05-16T00:27:43;17.67;;;2.05;;
70455;SDS011;57916;51.996;5.180;2023-05-16T00:30:10;15.40;;;2.13;;
70455;SDS011;57916;51.996;5.180;2023-05-16T00:32:37;11.77;;;1.90;;
70455;SDS011;57916;51.996;5.180;2023-05-16T00:35:06;17.30;;;2.17;;
70455;SDS011;57916;51.996;5.180;2023-05-16T00:37:36;15.30;;;1.90;;
70455;SDS011;57916;51.996;5.180;2023-05-16T00:40:04;11.00;;;1.95;;
70455;SDS011;57916;51.996;5.180;2023-05-16T00:42:31;15.53;;;1.83;;
70455;SDS011;57916;51.996;5.180;2023-05-16T00:44:59;16.17;;;1.55;;
70455;SDS011;57916;51.996;5.180;2023-05-16T00:47:27;12.93;;;2.08;;
70455;SDS011;57916;51.996;5.180;2023-05-16T00:49:54;15.40;;;2.03;;
70455;SDS011;57916;51.996;5.180;2023-05-16T00:52:21;17.30;;;1.80;;
70455;SDS011;57916;51.996;5.180;2023-05-16T00:54:49;13.52;;;1.92;;
70455;SDS011;57916;51.996;5.180;2023-05-16T00:57:17;9.48;;;1.70;;
70455;SDS011;57916;51.996;5.180;2023-05-16T00:59:47;15.98;;;2.40;;
70455;SDS011;57916;51.996;5.180;2023-05-16T01:02:16;16.60;;;2.50;;
70455;SDS011;57916;51.996;5.180;2023-05-16T01:04:43;11.07;;;1.98;;
70455;SDS011;57916;51.996;5.180;2023-05-16T01:07:13;15.77;;;2.17;;
70455;SDS011;57916;51.996;5.180;2023-05-16T01:09:41;14.48;;;1.90;;
70455;SDS011;57916;51.996;5.180;2023-05-16T01:20:44;9.75;;;1.80;;
70455;SDS011;57916;51.996;5.180;2023-05-16T01:23:32;14.32;;;2.22;;
70455;SDS011;57916;51.996;5.180;2023-05-16T01:26:23;13.88;;;1.98;;
70455;SDS011;57916;51.996;5.180;2023-05-16T01:28:53;15.55;;;2.03;;
70455;SDS011;57916;51.996;5.180;2023-05-16T01:31:21;13.98;;;1.73;;
70455;SDS011;57916;51.996;5.180;2023-05-16T01:33:50;14.32;;;1.92;;
70455;SDS011;57916;51.996;5.180;2023-05-16T01:45:05;13.77;;;1.80;;
70455;SDS011;57916;51.996;5.180;2023-05-16T01:47:15;12.18;;;1.80;;
70455;SDS011;57916;51.996;5.180;2023-05-16T01:50:28;15.05;;;1.95;;
70455;SDS011;57916;51.996;5.180;2023-05-16T01:55:27;14.38;;;2.10;;
70455;SDS011;57916;51.996;5.180;2023-05-16T01:58:00;13.18;;;1.73;;
70455;SDS011;57916;51.996;5.180;2023-05-16T02:00:29;10.80;;;1.92;;
70455;SDS011;57916;51.996;5.180;2023-05-16T02:02:58;9.75;;;2.13;;
70455;SDS011;57916;51.996;5.180;2023-05-16T02:05:25;14.20;;;2.40;;
70455;SDS011;57916;51.996;5.180;2023-05-16T02:07:52;16.60;;;2.13;;
70455;SDS011;57916;51.996;5.180;2023-05-16T02:10:20;14.05;;;1.85;;
70455;SDS011;57916;51.996;5.180;2023-05-16T02:12:48;17.58;;;2.50;;
70455;SDS011;57916;51.996;5.180;2023-05-16T02:15:15;13.00;;;2.08;;
70455;SDS011;57916;51.996;5.180;2023-05-16T02:17:42;16.70;;;2.53;;
70455;SDS011;57916;51.996;5.180;2023-05-16T02:20:09;16.77;;;1.90;;
70455;SDS011;57916;51.996;5.180;2023-05-16T02:22:37;15.27;;;1.77;;
70455;SDS011;57916;51.996;5.180;2023-05-16T02:25:12;10.97;;;2.27;;
70455;SDS011;57916;51.996;5.180;2023-05-16T02:27:41;13.65;;;1.90;;
70455;SDS011;57916;51.996;5.180;2023-05-16T02:30:09;11.70;;;1.85;;
70455;SDS011;57916;51.996;5.180;2023-05-16T02:32:38;12.32;;;1.92;;
70455;SDS011;57916;51.996;5.180;2023-05-16T02:35:06;15.40;;;1.97;;
70455;SDS011;57916;51.996;5.180;2023-05-16T02:37:33;15.80;;;2.00;;
70455;SDS011;57916;51.996;5.180;2023-05-16T02:40:01;13.10;;;2.25;;
70455;SDS011;57916;51.996;5.180;2023-05-16T02:42:30;10.73;;;1.90;;
70455;SDS011;57916;51.996;5.180;2023-05-16T02:44:57;14.75;;;2.10;;
70455;SDS011;57916;51.996;5.180;2023-05-16T02:47:24;14.75;;;2.22;;
70455;SDS011;57916;51.996;5.180;2023-05-16T02:49:52;13.10;;;1.92;;
70455;SDS011;57916;51.996;5.180;2023-05-16T02:52:19;15.63;;;2.03;;
70455;SDS011;57916;51.996;5.180;2023-05-16T02:54:46;17.63;;;2.28;;
70455;SDS011;57916;51.996;5.180;2023-05-16T02:57:33;12.50;;;2.20;;
70455;SDS011;57916;51.996;5.180;2023-05-16T03:00:00;11.57;;;2.47;;
70455;SDS011;57916;51.996;5.180;2023-05-16T03:02:27;12.40;;;2.55;;
70455;SDS011;57916;51.996;5.180;2023-05-16T03:04:54;10.10;;;2.10;;
70455;SDS011;57916;51.996;5.180;2023-05-16T03:07:21;8.00;;;1.50;;
70455;SDS011;57916;51.996;5.180;2023-05-16T03:09:48;13.30;;;2.13;;
70455;SDS011;57916;51.996;5.180;2023-05-16T03:12:16;13.35;;;2.10;;
70455;SDS011;57916;51.996;5.180;2023-05-16T03:14:43;16.75;;;2.75;;
70455;SDS011;57916;51.996;5.180;2023-05-16T03:17:10;14.52;;;2.22;;
70455;SDS011;57916;51.996;5.180;2023-05-16T03:19:37;18.33;;;2.70;;
70455;SDS011;57916;51.996;5.180;2023-05-16T03:22:04;12.82;;;2.63;;
70455;SDS011;57916;51.996;5.180;2023-05-16T03:24:31;14.25;;;2.53;;
70455;SDS011;57916;51.996;5.180;2023-05-16T03:26:58;11.60;;;1.80;;
70455;SDS011;57916;51.996;5.180;2023-05-16T03:29:25;11.88;;;2.25;;
70455;SDS011;57916;51.996;5.180;2023-05-16T03:31:52;11.68;;;2.25;;
70455;SDS011;57916;51.996;5.180;2023-05-16T03:34:20;11.93;;;2.22;;
70455;SDS011;57916;51.996;5.180;2023-05-16T03:36:47;13.75;;;2.42;;
70455;SDS011;57916;51.996;5.180;2023-05-16T03:39:15;13.32;;;2.55;;
70455;SDS011;57916;51.996;5.180;2023-05-16T03:41:43;11.10;;;2.30;;
70455;SDS011;57916;51.996;5.180;2023-05-16T03:44:09;15.88;;;2.45;;
70455;SDS011;57916;51.996;5.180;2023-05-16T03:46:36;13.55;;;2.10;;
70455;SDS011;57916;51.996;5.180;2023-05-16T03:49:03;18.23;;;2.25;;
70455;SDS011;57916;51.996;5.180;2023-05-16T03:51:30;12.90;;;2.15;;
70455;SDS011;57916;51.996;5.180;2023-05-16T03:53:58;16.05;;;2.40;;
70455;SDS011;57916;51.996;5.180;2023-05-16T03:56:25;13.82;;;1.95;;
70455;SDS011;57916;51.996;5.180;2023-05-16T03:58:52;11.27;;;2.00;;
70455;SDS011;57916;51.996;5.180;2023-05-16T04:01:19;12.20;;;2.42;;
70455;SDS011;57916;51.996;5.180;2023-05-16T04:03:46;17.37;;;2.07;;
70455;SDS011;57916;51.996;5.180;2023-05-16T04:06:13;15.18;;;2.10;;
70455;SDS011;57916;51.996;5.180;2023-05-16T04:08:40;15.75;;;2.50;;
70455;SDS011;57916;51.996;5.180;2023-05-16T04:11:10;11.10;;;2.00;;
70455;SDS011;57916;51.996;5.180;2023-05-16T04:13:37;12.48;;;2.08;;
70455;SDS011;57916;51.996;5.180;2023-05-16T04:16:04;13.93;;;2.67;;
70455;SDS011;57916;51.996;5.180;2023-05-16T04:18:32;11.00;;;2.10;;
70455;SDS011;57916;51.996;5.180;2023-05-16T04:20:59;12.80;;;2.20;;
70455;SDS011;57916;51.996;5.180;2023-05-16T04:23:26;20.30;;;2.33;;
70455;SDS011;57916;51.996;5.180;2023-05-16T04:25:53;12.23;;;2.63;;
70455;SDS011;57916;51.996;5.180;2023-05-16T04:28:22;10.88;;;2.40;;
70455;SDS011;57916;51.996;5.180;2023-05-16T04:30:48;13.83;;;2.60;;
70455;SDS011;57916;51.996;5.180;2023-05-16T04:33:16;10.82;;;2.45;;
70455;SDS011;57916;51.996;5.180;2023-05-16T04:35:44;9.77;;;2.40;;
70455;SDS011;57916;51.996;5.180;2023-05-16T04:38:11;12.90;;;2.55;;
70455;SDS011;57916;51.996;5.180;2023-05-16T04:40:37;15.50;;;2.50;;
70455;SDS011;57916;51.996;5.180;2023-05-16T04:43:06;14.52;;;2.38;;
70455;SDS011;57916;51.996;5.180;2023-05-16T04:45:33;14.80;;;2.47;;
70455;SDS011;57916;51.996;5.180;2023-05-16T04:48:03;12.38;;;2.03;;
70455;SDS011;57916;51.996;5.180;2023-05-16T04:50:30;13.90;;;2.80;;
70455;SDS011;57916;51.996;5.180;2023-05-16T04:52:57;14.48;;;2.40;;
70455;SDS011;57916;51.996;5.180;2023-05-16T04:55:24;12.82;;;2.47;;
70455;SDS011;57916;51.996;5.180;2023-05-16T04:57:51;15.13;;;2.30;;
70455;SDS011;57916;51.996;5.180;2023-05-16T05:00:18;15.02;;;2.42;;
70455;SDS011;57916;51.996;5.180;2023-05-16T05:02:45;9.05;;;2.22;;
70455;SDS011;57916;51.996;5.180;2023-05-16T05:05:12;14.27;;;2.45;;
70455;SDS011;57916;51.996;5.180;2023-05-16T05:07:39;11.32;;;2.13;;
70455;SDS011;57916;51.996;5.180;2023-05-16T05:10:06;11.37;;;2.10;;
70455;SDS011;57916;51.996;5.180;2023-05-16T05:12:34;17.57;;;2.97;;
70455;SDS011;57916;51.996;5.180;2023-05-16T05:15:01;12.23;;;2.40;;
70455;SDS011;57916;51.996;5.180;2023-05-16T05:17:28;10.70;;;2.42;;
70455;SDS011;57916;51.996;5.180;2023-05-16T05:19:56;12.80;;;2.50;;
70455;SDS011;57916;51.996;5.180;2023-05-16T05:22:22;12.65;;;2.22;;
70455;SDS011;57916;51.996;5.180;2023-05-16T05:24:49;18.05;;;2.50;;
70455;SDS011;57916;51.996;5.180;2023-05-16T05:27:17;13.55;;;2.17;;
70455;SDS011;57916;51.996;5.180;2023-05-16T05:29:44;11.27;;;2.40;;
70455;SDS011;57916;51.996;5.180;2023-05-16T05:32:11;11.88;;;2.28;;
70455;SDS011;57916;51.996;5.180;2023-05-16T05:34:38;11.43;;;2.28;;
70455;SDS011;57916;51.996;5.180;2023-05-16T05:37:05;11.48;;;2.13;;
70455;SDS011;57916;51.996;5.180;2023-05-16T05:39:31;15.63;;;2.40;;
70455;SDS011;57916;51.996;5.180;2023-05-16T05:41:58;13.52;;;2.20;;
70455;SDS011;57916;51.996;5.180;2023-05-16T05:44:26;7.55;;;2.15;;
70455;SDS011;57916;51.996;5.180;2023-05-16T05:46:53;12.43;;;1.92;;
70455;SDS011;57916;51.996;5.180;2023-05-16T05:49:20;9.63;;;2.25;;
70455;SDS011;57916;51.996;5.180;2023-05-16T05:51:47;10.65;;;2.20;;
70455;SDS011;57916;51.996;5.180;2023-05-16T05:54:17;15.20;;;2.30;;
70455;SDS011;57916;51.996;5.180;2023-05-16T05:56:45;11.57;;;2.03;;
70455;SDS011;57916;51.996;5.180;2023-05-16T05:59:12;14.75;;;2.10;;
70455;SDS011;57916;51.996;5.180;2023-05-16T06:01:39;9.48;;;1.95;;
70455;SDS011;57916;51.996;5.180;2023-05-16T06:04:06;11.18;;;1.83;;
70455;SDS011;57916;51.996;5.180;2023-05-16T06:06:33;11.05;;;1.77;;
70455;SDS011;57916;51.996;5.180;2023-05-16T06:09:00;14.45;;;2.35;;
70455;SDS011;57916;51.996;5.180;2023-05-16T06:11:27;11.53;;;1.80;;
70455;SDS011;57916;51.996;5.180;2023-05-16T06:13:54;8.43;;;1.83;;
70455;SDS011;57916;51.996;5.180;2023-05-16T06:16:24;11.48;;;1.63;;
70455;SDS011;57916;51.996;5.180;2023-05-16T06:18:51;15.25;;;1.90;;
70455;SDS011;57916;51.996;5.180;2023-05-16T06:21:18;10.75;;;1.90;;
70455;SDS011;57916;51.996;5.180;2023-05-16T06:23:45;10.73;;;1.73;;
70455;SDS011;57916;51.996;5.180;2023-05-16T06:26:12;11.75;;;1.73;;
70455;SDS011;57916;51.996;5.180;2023-05-16T06:28:39;13.43;;;1.73;;
70455;SDS011;57916;51.996;5.180;2023-05-16T06:31:06;10.25;;;1.95;;
70455;SDS011;57916;51.996;5.180;2023-05-16T06:33:33;10.05;;;1.90;;
70455;SDS011;57916;51.996;5.180;2023-05-16T06:36:00;9.00;;;1.73;;
70455;SDS011;57916;51.996;5.180;2023-05-16T06:38:27;11.35;;;1.48;;
70455;SDS011;57916;51.996;5.180;2023-05-16T06:40:54;9.70;;;1.90;;
70455;SDS011;57916;51.996;5.180;2023-05-16T06:43:21;9.98;;;1.50;;
70455;SDS011;57916;51.996;5.180;2023-05-16T06:45:48;5.35;;;1.30;;
70455;SDS011;57916;51.996;5.180;2023-05-16T06:48:16;7.60;;;1.35;;
70455;SDS011;57916;51.996;5.180;2023-05-16T06:50:50;12.60;;;1.73;;
70455;SDS011;57916;51.996;5.180;2023-05-16T06:53:19;7.30;;;1.10;;
70455;SDS011;57916;51.996;5.180;2023-05-16T06:55:46;8.05;;;1.33;;
70455;SDS011;57916;51.996;5.180;2023-05-16T06:58:13;9.93;;;1.42;;
70455;SDS011;57916;51.996;5.180;2023-05-16T07:00:40;11.07;;;1.55;;
70455;SDS011;57916;51.996;5.180;2023-05-16T07:03:09;10.82;;;1.23;;
70455;SDS011;57916;51.996;5.180;2023-05-16T07:05:36;4.78;;;1.50;;
70455;SDS011;57916;51.996;5.180;2023-05-16T07:08:03;14.35;;;1.73;;
70455;SDS011;57916;51.996;5.180;2023-05-16T07:10:33;6.13;;;1.40;;
70455;SDS011;57916;51.996;5.180;2023-05-16T07:13:00;6.32;;;1.60;;
70455;SDS011;57916;51.996;5.180;2023-05-16T07:15:27;4.90;;;1.20;;
70455;SDS011;57916;51.996;5.180;2023-05-16T07:17:54;4.38;;;1.30;;
70455;SDS011;57916;51.996;5.180;2023-05-16T07:20:22;5.07;;;1.15;;
70455;SDS011;57916;51.996;5.180;2023-05-16T07:22:49;8.90;;;1.10;;
70455;SDS011;57916;51.996;5.180;2023-05-16T07:25:16;8.57;;;1.10;;
70455;SDS011;57916;51.996;5.180;2023-05-16T07:27:43;7.45;;;1.15;;
70455;SDS011;57916;51.996;5.180;2023-05-16T07:30:11;4.68;;;1.13;;
70455;SDS011;57916;51.996;5.180;2023-05-16T07:32:39;6.07;;;1.30;;
70455;SDS011;57916;51.996;5.180;2023-05-16T07:35:06;6.40;;;1.63;;
70455;SDS011;57916;51.996;5.180;2023-05-16T07:37:34;5.00;;;1.10;;
70455;SDS011;57916;51.996;5.180;2023-05-16T07:40:01;5.00;;;0.93;;
70455;SDS011;57916;51.996;5.180;2023-05-16T07:42:29;5.22;;;1.02;;
70455;SDS011;57916;51.996;5.180;2023-05-16T07:44:57;9.55;;;1.27;;
70455;SDS011;57916;51.996;5.180;2023-05-16T07:47:23;8.97;;;0.90;;
70455;SDS011;57916;51.996;5.180;2023-05-16T07:49:51;6.97;;;1.20;;
70455;SDS011;57916;51.996;5.180;2023-05-16T07:52:18;6.38;;;0.80;;
70455;SDS011;57916;51.996;5.180;2023-05-16T07:54:45;4.63;;;0.98;;
70455;SDS011;57916;51.996;5.180;2023-05-16T07:57:13;5.07;;;0.77;;
70455;SDS011;57916;51.996;5.180;2023-05-16T07:59:41;6.25;;;1.00;;
70455;SDS011;57916;51.996;5.180;2023-05-16T08:02:09;4.20;;;1.00;;
70455;SDS011;57916;51.996;5.180;2023-05-16T08:04:36;6.28;;;1.27;;
70455;SDS011;57916;51.996;5.180;2023-05-16T08:07:04;9.50;;;1.10;;
70455;SDS011;57916;51.996;5.180;2023-05-16T08:09:31;4.88;;;0.90;;
70455;SDS011;57916;51.996;5.180;2023-05-16T08:11:58;4.97;;;1.05;;
70455;SDS011;57916;51.996;5.180;2023-05-16T08:14:29;4.70;;;1.08;;
70455;SDS011;57916;51.996;5.180;2023-05-16T08:16:58;5.75;;;0.88;;
70455;SDS011;57916;51.996;5.180;2023-05-16T08:19:25;5.68;;;1.08;;
70455;SDS011;57916;51.996;5.180;2023-05-16T08:21:53;4.88;;;1.00;;
70455;SDS011;57916;51.996;5.180;2023-05-16T08:24:20;5.65;;;1.40;;
70455;SDS011;57916;51.996;5.180;2023-05-16T08:26:47;7.45;;;1.40;;
70455;SDS011;57916;51.996;5.180;2023-05-16T08:29:14;7.93;;;1.08;;
70455;SDS011;57916;51.996;5.180;2023-05-16T08:31:41;7.38;;;1.00;;
70455;SDS011;57916;51.996;5.180;2023-05-16T08:34:09;5.32;;;0.85;;
70455;SDS011;57916;51.996;5.180;2023-05-16T08:36:36;8.45;;;1.10;;
70455;SDS011;57916;51.996;5.180;2023-05-16T08:39:03;5.43;;;1.10;;
70455;SDS011;57916;51.996;5.180;2023-05-16T08:41:31;5.45;;;1.27;;
70455;SDS011;57916;51.996;5.180;2023-05-16T08:43:58;7.15;;;1.05;;
70455;SDS011;57916;51.996;5.180;2023-05-16T08:46:25;6.47;;;0.93;;
70455;SDS011;57916;51.996;5.180;2023-05-16T08:48:56;6.03;;;1.13;;
70455;SDS011;57916;51.996;5.180;2023-05-16T08:51:25;6.18;;;0.98;;
70455;SDS011;57916;51.996;5.180;2023-05-16T08:53:56;7.35;;;1.30;;
70455;SDS011;57916;51.996;5.180;2023-05-16T08:56:28;6.88;;;1.00;;
70455;SDS011;57916;51.996;5.180;2023-05-16T08:58:55;5.07;;;1.00;;
70455;SDS011;57916;51.996;5.180;2023-05-16T09:01:25;2.93;;;1.00;;
70455;SDS011;57916;51.996;5.180;2023-05-16T09:03:53;3.13;;;1.10;;
70455;SDS011;57916;51.996;5.180;2023-05-16T09:06:21;5.53;;;1.00;;
70455;SDS011;57916;51.996;5.180;2023-05-16T09:08:48;2.42;;;0.73;;
70455;SDS011;57916;51.996;5.180;2023-05-16T09:11:16;4.28;;;1.00;;
70455;SDS011;57916;51.996;5.180;2023-05-16T09:13:44;7.10;;;1.05;;
70455;SDS011;57916;51.996;5.180;2023-05-16T09:16:11;5.22;;;1.05;;
70455;SDS011;57916;51.996;5.180;2023-05-16T09:18:41;4.35;;;0.80;;
70455;SDS011;57916;51.996;5.180;2023-05-16T09:21:10;6.35;;;1.05;;
70455;SDS011;57916;51.996;5.180;2023-05-16T09:23:38;7.75;;;0.90;;
70455;SDS011;57916;51.996;5.180;2023-05-16T09:26:07;7.00;;;1.08;;
70455;SDS011;57916;51.996;5.180;2023-05-16T09:28:36;3.08;;;1.10;;
70455;SDS011;57916;51.996;5.180;2023-05-16T09:31:18;7.05;;;0.82;;
70455;SDS011;57916;51.996;5.180;2023-05-16T09:33:46;3.42;;;0.90;;
70455;SDS011;57916;51.996;5.180;2023-05-16T09:36:15;6.18;;;0.88;;
70455;SDS011;57916;51.996;5.180;2023-05-16T09:38:42;4.65;;;1.02;;
70455;SDS011;57916;51.996;5.180;2023-05-16T09:41:09;9.18;;;1.00;;
70455;SDS011;57916;51.996;5.180;2023-05-16T09:43:37;6.28;;;1.20;;
70455;SDS011;57916;51.996;5.180;2023-05-16T09:46:07;4.57;;;1.08;;
70455;SDS011;57916;51.996;5.180;2023-05-16T09:48:36;4.25;;;0.90;;
70455;SDS011;57916;51.996;5.180;2023-05-16T09:51:13;7.25;;;1.08;;
70455;SDS011;57916;51.996;5.180;2023-05-16T09:53:40;5.80;;;0.98;;
70455;SDS011;57916;51.996;5.180;2023-05-16T09:56:10;8.13;;;1.10;;
70455;SDS011;57916;51.996;5.180;2023-05-16T09:58:39;7.22;;;1.10;;
70455;SDS011;57916;51.996;5.180;2023-05-16T10:01:08;7.07;;;0.90;;
70455;SDS011;57916;51.996;5.180;2023-05-16T10:03:37;4.70;;;1.00;;
70455;SDS011;57916;51.996;5.180;2023-05-16T10:06:06;5.38;;;1.10;;
70455;SDS011;57916;51.996;5.180;2023-05-16T10:08:34;6.28;;;0.95;;
70455;SDS011;57916;51.996;5.180;2023-05-16T10:11:03;6.18;;;0.93;;
70455;SDS011;57916;51.996;5.180;2023-05-16T10:13:34;6.85;;;1.00;;
70455;SDS011;57916;51.996;5.180;2023-05-16T10:16:20;4.90;;;1.30;;
70455;SDS011;57916;51.996;5.180;2023-05-16T10:18:49;6.47;;;1.10;;
70455;SDS011;57916;51.996;5.180;2023-05-16T10:21:17;3.90;;;1.00;;
70455;SDS011;57916;51.996;5.180;2023-05-16T10:23:47;4.50;;;1.02;;
70455;SDS011;57916;51.996;5.180;2023-05-16T10:26:17;7.95;;;1.10;;
70455;SDS011;57916;51.996;5.180;2023-05-16T10:28:46;4.18;;;0.90;;
70455;SDS011;57916;51.996;5.180;2023-05-16T10:31:14;6.43;;;0.93;;
70455;SDS011;57916;51.996;5.180;2023-05-16T10:33:42;3.90;;;1.23;;
70455;SDS011;57916;51.996;5.180;2023-05-16T10:36:09;5.45;;;1.10;;
70455;SDS011;57916;51.996;5.180;2023-05-16T10:38:37;6.97;;;1.20;;
70455;SDS011;57916;51.996;5.180;2023-05-16T10:41:05;5.00;;;0.98;;
70455;SDS011;57916;51.996;5.180;2023-05-16T10:43:33;4.15;;;0.80;;
70455;SDS011;57916;51.996;5.180;2023-05-16T10:46:06;4.32;;;0.90;;
70455;SDS011;57916;51.996;5.180;2023-05-16T10:48:38;4.53;;;0.95;;
70455;SDS011;57916;51.996;5.180;2023-05-16T10:53:54;4.55;;;1.20;;
70455;SDS011;57916;51.996;5.180;2023-05-16T10:56:30;4.80;;;1.10;;
70455;SDS011;57916;51.996;5.180;2023-05-16T10:58:59;4.57;;;1.05;;
70455;SDS011;57916;51.996;5.180;2023-05-16T11:01:27;5.97;;;1.03;;
70455;SDS011;57916;51.996;5.180;2023-05-16T11:11:42;5.93;;;0.73;;
70455;SDS011;57916;51.996;5.180;2023-05-16T11:27:30;4.25;;;0.90;;
70455;SDS011;57916;51.996;5.180;2023-05-16T11:30:11;4.28;;;0.90;;
70455;SDS011;57916;51.996;5.180;2023-05-16T11:32:41;3.35;;;1.00;;
70455;SDS011;57916;51.996;5.180;2023-05-16T11:35:11;6.22;;;1.00;;
70455;SDS011;57916;51.996;5.180;2023-05-16T11:37:40;4.50;;;0.88;;
70455;SDS011;57916;51.996;5.180;2023-05-16T11:40:08;5.10;;;0.98;;
70455;SDS011;57916;51.996;5.180;2023-05-16T11:42:38;7.75;;;1.02;;
70455;SDS011;57916;51.996;5.180;2023-05-16T11:45:07;2.72;;;1.10;;
70455;SDS011;57916;51.996;5.180;2023-05-16T11:47:43;4.63;;;1.10;;
70455;SDS011;57916;51.996;5.180;2023-05-16T11:50:14;4.20;;;1.00;;
70455;SDS011;57916;51.996;5.180;2023-05-16T11:52:46;1.70;;;0.77;;
70455;SDS011;57916;51.996;5.180;2023-05-16T11:55:19;6.28;;;1.00;;
70455;SDS011;57916;51.996;5.180;2023-05-16T11:58:06;5.00;;;1.08;;
70455;SDS011;57916;51.996;5.180;2023-05-16T12:00:33;7.10;;;1.13;;
70455;SDS011;57916;51.996;5.180;2023-05-16T12:03:01;7.55;;;1.33;;
70455;SDS011;57916;51.996;5.180;2023-05-16T12:05:31;7.85;;;1.00;;
70455;SDS011;57916;51.996;5.180;2023-05-16T12:08:00;7.75;;;1.00;;
70455;SDS011;57916;51.996;5.180;2023-05-16T12:10:30;4.45;;;0.88;;
70455;SDS011;57916;51.996;5.180;2023-05-16T12:13:00;5.07;;;1.00;;
70455;SDS011;57916;51.996;5.180;2023-05-16T12:15:29;4.47;;;1.08;;
70455;SDS011;57916;51.996;5.180;2023-05-16T12:17:56;6.88;;;1.30;;
70455;SDS011;57916;51.996;5.180;2023-05-16T12:20:24;5.47;;;1.00;;
70455;SDS011;57916;51.996;5.180;2023-05-16T12:22:51;4.93;;;1.20;;
70455;SDS011;57916;51.996;5.180;2023-05-16T12:27:57;5.10;;;0.90;;
70455;SDS011;57916;51.996;5.180;2023-05-16T12:30:29;4.93;;;0.90;;
70455;SDS011;57916;51.996;5.180;2023-05-16T12:32:58;5.80;;;1.00;;
70455;SDS011;57916;51.996;5.180;2023-05-16T12:35:30;6.07;;;0.90;;
70455;SDS011;57916;51.996;5.180;2023-05-16T12:37:59;5.22;;;1.00;;
70455;SDS011;57916;51.996;5.180;2023-05-16T12:40:30;5.40;;;1.10;;
70455;SDS011;57916;51.996;5.180;2023-05-16T12:42:57;6.30;;;1.10;;
70455;SDS011;57916;51.996;5.180;2023-05-16T12:45:25;5.90;;;1.08;;
70455;SDS011;57916;51.996;5.180;2023-05-16T12:47:53;6.78;;;1.20;;
70455;SDS011;57916;51.996;5.180;2023-05-16T12:50:21;5.18;;;1.13;;
70455;SDS011;57916;51.996;5.180;2023-05-16T12:52:49;5.28;;;0.90;;
70455;SDS011;57916;51.996;5.180;2023-05-16T12:55:17;3.63;;;1.08;;
70455;SDS011;57916;51.996;5.180;2023-05-16T12:57:46;3.67;;;0.90;;
70455;SDS011;57916;51.996;5.180;2023-05-16T13:00:14;4.95;;;0.90;;
70455;SDS011;57916;51.996;5.180;2023-05-16T13:02:44;5.30;;;1.05;;
70455;SDS011;57916;51.996;5.180;2023-05-16T13:05:13;8.07;;;1.30;;
70455;SDS011;57916;51.996;5.180;2023-05-16T13:07:40;4.40;;;1.08;;
70455;SDS011;57916;51.996;5.180;2023-05-16T13:10:07;5.97;;;1.48;;
70455;SDS011;57916;51.996;5.180;2023-05-16T13:12:38;6.45;;;1.17;;
70455;SDS011;57916;51.996;5.180;2023-05-16T13:15:06;11.88;;;1.05;;
70455;SDS011;57916;51.996;5.180;2023-05-16T13:17:35;8.57;;;1.10;;
70455;SDS011;57916;51.996;5.180;2023-05-16T13:20:06;5.85;;;1.10;;
70455;SDS011;57916;51.996;5.180;2023-05-16T13:22:35;5.93;;;1.05;;
70455;SDS011;57916;51.996;5.180;2023-05-16T13:25:03;4.35;;;1.05;;
70455;SDS011;57916;51.996;5.180;2023-05-16T13:27:31;4.28;;;1.00;;
70455;SDS011;57916;51.996;5.180;2023-05-16T13:29:59;3.78;;;0.90;;
70455;SDS011;57916;51.996;5.180;2023-05-16T13:32:26;4.72;;;1.00;;
70455;SDS011;57916;51.996;5.180;2023-05-16T13:34:53;8.47;;;1.10;;
70455;SDS011;57916;51.996;5.180;2023-05-16T13:37:20;7.82;;;1.30;;
70455;SDS011;57916;51.996;5.180;2023-05-16T13:39:49;3.20;;;0.80;;
70455;SDS011;57916;51.996;5.180;2023-05-16T13:42:16;4.57;;;0.90;;
70455;SDS011;57916;51.996;5.180;2023-05-16T13:44:43;6.60;;;1.10;;
70455;SDS011;57916;51.996;5.180;2023-05-16T13:47:10;4.97;;;0.90;;
70455;SDS011;57916;51.996;5.180;2023-05-16T13:49:37;5.63;;;1.08;;
70455;SDS011;57916;51.996;5.180;2023-05-16T13:52:05;3.60;;;0.90;;
70455;SDS011;57916;51.996;5.180;2023-05-16T13:54:32;6.38;;;1.05;;
70455;SDS011;57916;51.996;5.180;2023-05-16T13:56:59;3.72;;;0.95;;
70455;SDS011;57916;51.996;5.180;2023-05-16T13:59:27;4.78;;;0.95;;
70455;SDS011;57916;51.996;5.180;2023-05-16T14:02:14;6.40;;;1.08;;
70455;SDS011;57916;51.996;5.180;2023-05-16T14:04:41;12.75;;;1.08;;
70455;SDS011;57916;51.996;5.180;2023-05-16T14:07:08;5.33;;;0.90;;
70455;SDS011;57916;51.996;5.180;2023-05-16T14:09:35;5.65;;;1.08;;
70455;SDS011;57916;51.996;5.180;2023-05-16T14:12:05;3.50;;;0.90;;
70455;SDS011;57916;51.996;5.180;2023-05-16T14:14:33;7.10;;;1.00;;
70455;SDS011;57916;51.996;5.180;2023-05-16T14:17:01;5.88;;;1.10;;
70455;SDS011;57916;51.996;5.180;2023-05-16T14:19:29;6.65;;;1.00;;
70455;SDS011;57916;51.996;5.180;2023-05-16T14:21:57;3.28;;;1.10;;
70455;SDS011;57916;51.996;5.180;2023-05-16T14:24:24;8.32;;;1.10;;
70455;SDS011;57916;51.996;5.180;2023-05-16T14:26:51;5.53;;;0.90;;
70455;SDS011;57916;51.996;5.180;2023-05-16T14:29:23;3.33;;;0.90;;
70455;SDS011;57916;51.996;5.180;2023-05-16T14:31:51;3.72;;;0.90;;
70455;SDS011;57916;51.996;5.180;2023-05-16T14:34:18;4.32;;;0.90;;
70455;SDS011;57916;51.996;5.180;2023-05-16T14:36:45;6.25;;;0.98;;
70455;SDS011;57916;51.996;5.180;2023-05-16T14:39:13;4.20;;;1.00;;
70455;SDS011;57916;51.996;5.180;2023-05-16T14:41:40;4.07;;;1.00;;
70455;SDS011;57916;51.996;5.180;2023-05-16T14:44:07;6.05;;;0.80;;
70455;SDS011;57916;51.996;5.180;2023-05-16T14:46:33;5.15;;;0.90;;
70455;SDS011;57916;51.996;5.180;2023-05-16T14:49:01;4.70;;;1.10;;
70455;SDS011;57916;51.996;5.180;2023-05-16T14:51:28;2.80;;;0.80;;
70455;SDS011;57916;51.996;5.180;2023-05-16T14:53:57;4.55;;;0.70;;
70455;SDS011;57916;51.996;5.180;2023-05-16T14:56:24;2.65;;;0.73;;
70455;SDS011;57916;51.996;5.180;2023-05-16T14:58:52;5.40;;;0.90;;
70455;SDS011;57916;51.996;5.180;2023-05-16T15:01:19;10.82;;;1.70;;
70455;SDS011;57916;51.996;5.180;2023-05-16T15:03:46;6.00;;;1.15;;
70455;SDS011;57916;51.996;5.180;2023-05-16T15:06:21;6.30;;;0.95;;
70455;SDS011;57916;51.996;5.180;2023-05-16T15:08:49;3.00;;;1.13;;
70455;SDS011;57916;51.996;5.180;2023-05-16T15:11:16;5.70;;;0.80;;
70455;SDS011;57916;51.996;5.180;2023-05-16T15:13:43;5.07;;;1.30;;
70455;SDS011;57916;51.996;5.180;2023-05-16T15:16:10;11.20;;;1.30;;
70455;SDS011;57916;51.996;5.180;2023-05-16T15:18:37;6.55;;;0.95;;
70455;SDS011;57916;51.996;5.180;2023-05-16T15:21:05;4.78;;;0.73;;
70455;SDS011;57916;51.996;5.180;2023-05-16T15:23:32;6.18;;;0.95;;
70455;SDS011;57916;51.996;5.180;2023-05-16T15:25:59;4.80;;;0.80;;
70455;SDS011;57916;51.996;5.180;2023-05-16T15:28:26;2.25;;;0.73;;
70455;SDS011;57916;51.996;5.180;2023-05-16T15:30:53;3.42;;;0.82;;
70455;SDS011;57916;51.996;5.180;2023-05-16T15:33:20;3.40;;;0.80;;
70455;SDS011;57916;51.996;5.180;2023-05-16T15:35:47;2.85;;;0.70;;